West Coast Haida Gwaii - southern half: Past 24 Hour Conditions

 

East Dellwood - 46207

12:00 AM PST 21 January 2017Buoy position: 50.88N 129.93W
Disclaimer

This table is a summary of hourly weather conditions for the past 24 hours.
Please note that these observations might not always be representative of weather conditions over their associated marine area.

Date / Time
(PST)
Wind(knots) Wave height(m) Wave period(s) Pressure(kPa) Air tempC) Water tempC)
21 January 2017
0:00 NE 14 gust 18 3.6 20.0 98.7 9 9
20 January 2017
23:00 NE 16 gust 21 3.6 18.0 98.7 9 9
22:00 NE 18 gust 19 3.1 21.0 98.7 9 9
21:00 NNE 18 gust 21 2.9 12.0 98.7 9 9
20:00 NNE 19 gust 23 2.9 12.0 98.6 9 9
19:00 NNE 19 gust 25 2.9 12.0 98.6 9 9
18:00 NNE 19 gust 23 2.9 15.0 98.6 9 9
17:00 NE 19 gust 23 3.1 15.0 98.6 9 9
16:00 NE 19 gust 23 3.2 14.0 98.6 9 9
15:00 NE 16 gust 19 3.2 12.0 98.7 9 9
14:00 ENE 16 gust 21 3.4 14.0 98.7 9 9
13:00 ENE 16 gust 21 3.8 14.0 98.7 9 9
12:00 E 16 gust 21 3.7 15.0 98.8 8 9
11:00 ENE 16 gust 23 3.7 12.0 98.8 8 9
10:00 ENE 18 gust 21 3.9 14.0 98.8 8 9
9:00 ENE 14 gust 19 4.1 15.0 98.8 8 9
8:00 E 14 gust 19 3.9 14.0 98.8 8 9
7:00 E 18 gust 23 4.3 15.0 98.8 9 9
6:00 E 14 gust 19 4.3 15.0 98.8 8 9
5:00 ESE 18 gust 23 4.6 16.0 98.8 9 9
4:00 ESE 12 gust 16 4.6 16.0 98.9 9 9
3:00 ESE 8 gust 12 5.0 16.0 98.9 9 9
2:00 ESE 8 gust 12 4.9 17.0 99.0 8 9
1:00 ESE 14 gust 18 5.0 14.0 99.0 9 9
0:00 E 10 gust 16 5.5 15.0 99.0 9 9

Zoom-in to make a selection

Map of Pacific - South Coast marine weather areas Tsawwassen Ferry Terminal South Nomad - 46036 Sentry Shoal - 46131 South Brooks - 46132 Halibut Bank - 46146 South Moresby - 46147 South Hecate Strait - 46185 West Sea Otter - 46204 La Perouse Bank - 46206 East Dellwood - 46207 Discovery Island Esquimalt Harbour Kelp Reefs Malahat Race Rocks Lightstation Saturna Island Sheringham Point University of Victoria Victoria Gonzales Victoria Int'l Airport Ballenas Islands Campbell River Airport Comox Airport Entrance Island Fanny Island Nanaimo Airport Port Hardy Airport Sisters Islets Estevan Point Sartine Island Solander Island Tofino Airport Grief Point Powell River Airport Sechelt Cape St.James Bella Bella Airport Bella Coola Airport Cathedral Point Herbert Island Point Atkinson Sand Heads Lightstation Vancouver Harbour Vancouver Int'l Airport West Vancouver Port Alberni Howe Sound - Pam Rocks Squamish Airport
Legend:
buoy Buoy
land station Land Station

Pacific - South Coast Area

Another Region

What we are doing

Date modified: